sensor_id;sensor_type;location;lat;lon;timestamp;P1;durP1;ratioP1;P2;durP2;ratioP2
28427;SDS011;15662;49.128;8.520;2023-11-21T00:00:42;4.97;;;1.20;;
28427;SDS011;15662;49.128;8.520;2023-11-21T00:03:09;3.30;;;1.20;;
28427;SDS011;15662;49.128;8.520;2023-11-21T00:05:38;3.22;;;1.10;;
28427;SDS011;15662;49.128;8.520;2023-11-21T00:08:08;3.53;;;1.05;;
28427;SDS011;15662;49.128;8.520;2023-11-21T00:10:37;4.10;;;1.10;;
28427;SDS011;15662;49.128;8.520;2023-11-21T00:13:05;2.67;;;1.00;;
28427;SDS011;15662;49.128;8.520;2023-11-21T00:15:33;4.63;;;1.40;;
28427;SDS011;15662;49.128;8.520;2023-11-21T00:18:01;3.72;;;0.93;;
28427;SDS011;15662;49.128;8.520;2023-11-21T00:20:29;5.50;;;1.27;;
28427;SDS011;15662;49.128;8.520;2023-11-21T00:22:56;6.75;;;1.33;;
28427;SDS011;15662;49.128;8.520;2023-11-21T00:25:24;3.42;;;1.00;;
28427;SDS011;15662;49.128;8.520;2023-11-21T00:27:52;2.78;;;1.20;;
28427;SDS011;15662;49.128;8.520;2023-11-21T00:30:21;3.45;;;1.17;;
28427;SDS011;15662;49.128;8.520;2023-11-21T00:32:49;2.60;;;1.30;;
28427;SDS011;15662;49.128;8.520;2023-11-21T00:35:17;3.30;;;1.08;;
28427;SDS011;15662;49.128;8.520;2023-11-21T00:37:45;3.13;;;1.17;;
28427;SDS011;15662;49.128;8.520;2023-11-21T00:40:12;3.53;;;1.20;;
28427;SDS011;15662;49.128;8.520;2023-11-21T00:42:42;6.45;;;1.45;;
28427;SDS011;15662;49.128;8.520;2023-11-21T00:45:10;3.05;;;1.02;;
28427;SDS011;15662;49.128;8.520;2023-11-21T00:47:38;2.78;;;0.90;;
28427;SDS011;15662;49.128;8.520;2023-11-21T00:50:06;3.40;;;1.20;;
28427;SDS011;15662;49.128;8.520;2023-11-21T00:52:35;3.65;;;1.08;;
28427;SDS011;15662;49.128;8.520;2023-11-21T00:55:04;3.05;;;0.88;;
28427;SDS011;15662;49.128;8.520;2023-11-21T00:57:34;4.93;;;1.20;;
28427;SDS011;15662;49.128;8.520;2023-11-21T01:00:03;1.95;;;0.80;;
28427;SDS011;15662;49.128;8.520;2023-11-21T01:02:40;2.55;;;0.90;;
28427;SDS011;15662;49.128;8.520;2023-11-21T01:05:08;4.85;;;1.50;;
28427;SDS011;15662;49.128;8.520;2023-11-21T01:07:36;3.75;;;1.42;;
28427;SDS011;15662;49.128;8.520;2023-11-21T01:10:04;4.18;;;1.17;;
28427;SDS011;15662;49.128;8.520;2023-11-21T01:12:35;3.35;;;1.20;;
28427;SDS011;15662;49.128;8.520;2023-11-21T01:15:05;2.78;;;1.10;;
28427;SDS011;15662;49.128;8.520;2023-11-21T01:17:39;3.20;;;1.00;;
28427;SDS011;15662;49.128;8.520;2023-11-21T01:20:08;3.85;;;1.20;;
28427;SDS011;15662;49.128;8.520;2023-11-21T01:22:40;2.22;;;0.90;;
28427;SDS011;15662;49.128;8.520;2023-11-21T01:25:08;3.67;;;1.50;;
28427;SDS011;15662;49.128;8.520;2023-11-21T01:27:37;1.70;;;0.80;;
28427;SDS011;15662;49.128;8.520;2023-11-21T01:30:05;3.25;;;1.00;;
28427;SDS011;15662;49.128;8.520;2023-11-21T01:32:39;3.88;;;0.90;;
28427;SDS011;15662;49.128;8.520;2023-11-21T01:35:09;4.13;;;1.27;;
28427;SDS011;15662;49.128;8.520;2023-11-21T01:37:37;2.00;;;0.75;;
28427;SDS011;15662;49.128;8.520;2023-11-21T01:40:06;2.60;;;1.17;;
28427;SDS011;15662;49.128;8.520;2023-11-21T01:42:37;3.40;;;1.38;;
28427;SDS011;15662;49.128;8.520;2023-11-21T01:45:06;3.42;;;1.00;;
28427;SDS011;15662;49.128;8.520;2023-11-21T01:47:34;2.55;;;0.80;;
28427;SDS011;15662;49.128;8.520;2023-11-21T01:50:03;4.68;;;0.90;;
28427;SDS011;15662;49.128;8.520;2023-11-21T01:52:34;2.45;;;1.10;;
28427;SDS011;15662;49.128;8.520;2023-11-21T01:55:03;3.08;;;1.00;;
28427;SDS011;15662;49.128;8.520;2023-11-21T01:57:35;2.25;;;0.90;;
28427;SDS011;15662;49.128;8.520;2023-11-21T02:00:07;3.03;;;0.70;;
28427;SDS011;15662;49.128;8.520;2023-11-21T02:02:46;2.33;;;0.90;;
28427;SDS011;15662;49.128;8.520;2023-11-21T02:05:16;1.20;;;0.80;;
28427;SDS011;15662;49.128;8.520;2023-11-21T02:07:45;2.25;;;0.95;;
28427;SDS011;15662;49.128;8.520;2023-11-21T02:10:15;3.53;;;1.00;;
28427;SDS011;15662;49.128;8.520;2023-11-21T02:12:44;2.22;;;0.90;;
28427;SDS011;15662;49.128;8.520;2023-11-21T02:15:13;1.88;;;1.10;;
28427;SDS011;15662;49.128;8.520;2023-11-21T02:17:47;1.63;;;0.70;;
28427;SDS011;15662;49.128;8.520;2023-11-21T02:20:21;2.25;;;0.70;;
28427;SDS011;15662;49.128;8.520;2023-11-21T02:22:55;4.15;;;1.45;;
28427;SDS011;15662;49.128;8.520;2023-11-21T02:25:28;2.58;;;0.80;;
28427;SDS011;15662;49.128;8.520;2023-11-21T02:28:02;4.97;;;1.02;;
28427;SDS011;15662;49.128;8.520;2023-11-21T02:30:30;1.80;;;1.10;;
28427;SDS011;15662;49.128;8.520;2023-11-21T02:33:01;2.40;;;1.08;;
28427;SDS011;15662;49.128;8.520;2023-11-21T02:35:30;2.80;;;1.05;;
28427;SDS011;15662;49.128;8.520;2023-11-21T02:37:59;4.60;;;1.17;;
28427;SDS011;15662;49.128;8.520;2023-11-21T02:40:27;2.28;;;0.80;;
28427;SDS011;15662;49.128;8.520;2023-11-21T02:42:55;4.97;;;1.20;;
28427;SDS011;15662;49.128;8.520;2023-11-21T02:45:26;2.67;;;1.13;;
28427;SDS011;15662;49.128;8.520;2023-11-21T02:47:53;3.22;;;0.95;;
28427;SDS011;15662;49.128;8.520;2023-11-21T02:50:25;4.50;;;1.20;;
28427;SDS011;15662;49.128;8.520;2023-11-21T02:52:53;2.67;;;1.10;;
28427;SDS011;15662;49.128;8.520;2023-11-21T02:55:21;4.72;;;1.15;;
28427;SDS011;15662;49.128;8.520;2023-11-21T02:57:53;3.75;;;1.50;;
28427;SDS011;15662;49.128;8.520;2023-11-21T03:00:23;6.27;;;1.50;;
28427;SDS011;15662;49.128;8.520;2023-11-21T03:02:54;3.67;;;1.20;;
28427;SDS011;15662;49.128;8.520;2023-11-21T03:05:25;2.05;;;1.10;;
28427;SDS011;15662;49.128;8.520;2023-11-21T03:07:53;5.53;;;1.63;;
28427;SDS011;15662;49.128;8.520;2023-11-21T03:10:21;2.60;;;1.00;;
28427;SDS011;15662;49.128;8.520;2023-11-21T03:12:49;2.85;;;1.13;;
28427;SDS011;15662;49.128;8.520;2023-11-21T03:15:17;3.45;;;1.25;;
28427;SDS011;15662;49.128;8.520;2023-11-21T03:17:45;4.22;;;1.10;;
28427;SDS011;15662;49.128;8.520;2023-11-21T03:20:12;4.53;;;1.20;;
28427;SDS011;15662;49.128;8.520;2023-11-21T03:22:40;4.10;;;1.10;;
28427;SDS011;15662;49.128;8.520;2023-11-21T03:25:08;3.25;;;0.82;;
28427;SDS011;15662;49.128;8.520;2023-11-21T03:27:39;4.30;;;1.10;;
28427;SDS011;15662;49.128;8.520;2023-11-21T03:30:08;3.55;;;1.10;;
28427;SDS011;15662;49.128;8.520;2023-11-21T03:32:37;2.60;;;1.02;;
28427;SDS011;15662;49.128;8.520;2023-11-21T03:35:05;3.88;;;1.02;;
28427;SDS011;15662;49.128;8.520;2023-11-21T03:37:34;2.30;;;1.05;;
28427;SDS011;15662;49.128;8.520;2023-11-21T03:40:02;3.08;;;1.13;;
28427;SDS011;15662;49.128;8.520;2023-11-21T03:42:31;3.38;;;1.27;;
28427;SDS011;15662;49.128;8.520;2023-11-21T03:44:59;2.50;;;1.00;;
28427;SDS011;15662;49.128;8.520;2023-11-21T03:47:27;4.15;;;1.23;;
28427;SDS011;15662;49.128;8.520;2023-11-21T03:49:55;3.22;;;1.20;;
28427;SDS011;15662;49.128;8.520;2023-11-21T03:52:24;2.65;;;0.90;;
28427;SDS011;15662;49.128;8.520;2023-11-21T03:54:52;2.55;;;1.00;;
28427;SDS011;15662;49.128;8.520;2023-11-21T03:57:20;3.42;;;1.17;;
28427;SDS011;15662;49.128;8.520;2023-11-21T03:59:48;1.55;;;0.88;;
28427;SDS011;15662;49.128;8.520;2023-11-21T04:02:16;3.60;;;1.10;;
28427;SDS011;15662;49.128;8.520;2023-11-21T04:04:44;4.43;;;1.00;;
28427;SDS011;15662;49.128;8.520;2023-11-21T04:07:12;1.92;;;1.20;;
28427;SDS011;15662;49.128;8.520;2023-11-21T04:09:40;3.90;;;1.20;;
28427;SDS011;15662;49.128;8.520;2023-11-21T04:12:08;3.72;;;1.13;;
28427;SDS011;15662;49.128;8.520;2023-11-21T04:14:36;5.70;;;1.10;;
28427;SDS011;15662;49.128;8.520;2023-11-21T04:17:04;1.85;;;0.90;;
28427;SDS011;15662;49.128;8.520;2023-11-21T04:19:32;2.80;;;1.02;;
28427;SDS011;15662;49.128;8.520;2023-11-21T04:22:00;1.92;;;1.00;;
28427;SDS011;15662;49.128;8.520;2023-11-21T04:24:27;4.20;;;1.08;;
28427;SDS011;15662;49.128;8.520;2023-11-21T04:26:55;1.75;;;1.00;;
28427;SDS011;15662;49.128;8.520;2023-11-21T04:29:23;1.38;;;0.90;;
28427;SDS011;15662;49.128;8.520;2023-11-21T04:31:51;1.23;;;0.73;;
28427;SDS011;15662;49.128;8.520;2023-11-21T04:34:19;2.45;;;1.00;;
28427;SDS011;15662;49.128;8.520;2023-11-21T04:36:46;4.55;;;0.98;;
28427;SDS011;15662;49.128;8.520;2023-11-21T04:39:14;1.08;;;0.93;;
28427;SDS011;15662;49.128;8.520;2023-11-21T04:41:42;1.35;;;0.90;;
28427;SDS011;15662;49.128;8.520;2023-11-21T04:44:10;1.70;;;0.90;;
28427;SDS011;15662;49.128;8.520;2023-11-21T04:46:37;2.53;;;0.95;;
28427;SDS011;15662;49.128;8.520;2023-11-21T04:49:05;2.05;;;0.80;;
28427;SDS011;15662;49.128;8.520;2023-11-21T04:51:33;1.67;;;0.90;;
28427;SDS011;15662;49.128;8.520;2023-11-21T04:54:01;2.03;;;1.10;;
28427;SDS011;15662;49.128;8.520;2023-11-21T04:56:28;2.50;;;1.02;;
28427;SDS011;15662;49.128;8.520;2023-11-21T04:58:56;1.30;;;0.80;;
28427;SDS011;15662;49.128;8.520;2023-11-21T05:01:24;2.08;;;0.85;;
28427;SDS011;15662;49.128;8.520;2023-11-21T05:03:52;2.20;;;1.10;;
28427;SDS011;15662;49.128;8.520;2023-11-21T05:06:20;3.05;;;1.35;;
28427;SDS011;15662;49.128;8.520;2023-11-21T05:08:47;2.63;;;1.00;;
28427;SDS011;15662;49.128;8.520;2023-11-21T05:11:25;2.13;;;1.08;;
28427;SDS011;15662;49.128;8.520;2023-11-21T05:13:54;2.78;;;0.90;;
28427;SDS011;15662;49.128;8.520;2023-11-21T05:16:26;3.17;;;1.10;;
28427;SDS011;15662;49.128;8.520;2023-11-21T05:18:57;4.32;;;1.10;;
28427;SDS011;15662;49.128;8.520;2023-11-21T05:21:27;3.72;;;1.00;;
28427;SDS011;15662;49.128;8.520;2023-11-21T05:23:56;1.05;;;0.88;;
28427;SDS011;15662;49.128;8.520;2023-11-21T05:26:24;3.28;;;0.85;;
28427;SDS011;15662;49.128;8.520;2023-11-21T05:28:52;1.75;;;0.95;;
28427;SDS011;15662;49.128;8.520;2023-11-21T05:31:20;2.40;;;1.20;;
28427;SDS011;15662;49.128;8.520;2023-11-21T05:33:48;1.02;;;0.88;;
28427;SDS011;15662;49.128;8.520;2023-11-21T05:36:16;2.15;;;1.20;;
28427;SDS011;15662;49.128;8.520;2023-11-21T05:38:44;1.77;;;0.90;;
28427;SDS011;15662;49.128;8.520;2023-11-21T05:41:12;2.85;;;1.30;;
28427;SDS011;15662;49.128;8.520;2023-11-21T05:43:40;2.17;;;0.93;;
28427;SDS011;15662;49.128;8.520;2023-11-21T05:46:08;2.55;;;1.20;;
28427;SDS011;15662;49.128;8.520;2023-11-21T05:48:36;3.75;;;1.30;;
28427;SDS011;15662;49.128;8.520;2023-11-21T05:51:06;1.65;;;1.15;;
28427;SDS011;15662;49.128;8.520;2023-11-21T05:53:35;1.88;;;1.30;;
28427;SDS011;15662;49.128;8.520;2023-11-21T05:56:03;1.88;;;0.98;;
28427;SDS011;15662;49.128;8.520;2023-11-21T05:58:31;2.42;;;1.20;;
28427;SDS011;15662;49.128;8.520;2023-11-21T06:00:59;1.95;;;1.10;;
28427;SDS011;15662;49.128;8.520;2023-11-21T06:03:27;3.80;;;1.50;;
28427;SDS011;15662;49.128;8.520;2023-11-21T06:05:55;1.75;;;1.20;;
28427;SDS011;15662;49.128;8.520;2023-11-21T06:08:22;1.88;;;1.20;;
28427;SDS011;15662;49.128;8.520;2023-11-21T06:10:51;2.33;;;1.10;;
28427;SDS011;15662;49.128;8.520;2023-11-21T06:13:19;1.23;;;1.02;;
28427;SDS011;15662;49.128;8.520;2023-11-21T06:15:51;2.45;;;1.30;;
28427;SDS011;15662;49.128;8.520;2023-11-21T06:18:19;2.10;;;1.10;;
28427;SDS011;15662;49.128;8.520;2023-11-21T06:20:47;1.08;;;1.08;;
28427;SDS011;15662;49.128;8.520;2023-11-21T06:23:15;1.95;;;1.10;;
28427;SDS011;15662;49.128;8.520;2023-11-21T06:25:43;1.52;;;1.17;;
28427;SDS011;15662;49.128;8.520;2023-11-21T06:28:11;2.40;;;1.20;;
28427;SDS011;15662;49.128;8.520;2023-11-21T06:30:39;1.20;;;1.10;;
28427;SDS011;15662;49.128;8.520;2023-11-21T06:33:07;1.52;;;1.35;;
28427;SDS011;15662;49.128;8.520;2023-11-21T06:35:35;1.45;;;1.00;;
28427;SDS011;15662;49.128;8.520;2023-11-21T06:38:02;1.15;;;1.05;;
28427;SDS011;15662;49.128;8.520;2023-11-21T06:40:30;1.08;;;1.02;;
28427;SDS011;15662;49.128;8.520;2023-11-21T06:43:00;1.38;;;1.10;;
28427;SDS011;15662;49.128;8.520;2023-11-21T06:45:28;2.08;;;1.00;;
28427;SDS011;15662;49.128;8.520;2023-11-21T06:47:56;1.33;;;1.00;;
28427;SDS011;15662;49.128;8.520;2023-11-21T06:50:24;2.08;;;1.10;;
28427;SDS011;15662;49.128;8.520;2023-11-21T06:52:52;1.92;;;1.08;;
28427;SDS011;15662;49.128;8.520;2023-11-21T06:55:20;1.40;;;1.05;;
28427;SDS011;15662;49.128;8.520;2023-11-21T06:57:48;1.15;;;1.10;;
28427;SDS011;15662;49.128;8.520;2023-11-21T07:00:16;1.10;;;1.00;;
28427;SDS011;15662;49.128;8.520;2023-11-21T07:02:45;1.98;;;1.40;;
28427;SDS011;15662;49.128;8.520;2023-11-21T07:05:13;1.38;;;1.27;;
28427;SDS011;15662;49.128;8.520;2023-11-21T07:07:42;1.20;;;1.10;;
28427;SDS011;15662;49.128;8.520;2023-11-21T07:10:10;1.20;;;1.10;;
28427;SDS011;15662;49.128;8.520;2023-11-21T07:12:38;1.02;;;0.90;;
28427;SDS011;15662;49.128;8.520;2023-11-21T07:15:07;1.00;;;0.90;;
28427;SDS011;15662;49.128;8.520;2023-11-21T07:17:38;1.42;;;1.30;;
28427;SDS011;15662;49.128;8.520;2023-11-21T07:20:08;0.90;;;0.90;;
28427;SDS011;15662;49.128;8.520;2023-11-21T07:22:36;1.27;;;1.15;;
28427;SDS011;15662;49.128;8.520;2023-11-21T07:25:04;1.40;;;1.30;;
28427;SDS011;15662;49.128;8.520;2023-11-21T07:27:32;3.33;;;1.80;;
28427;SDS011;15662;49.128;8.520;2023-11-21T07:30:02;1.60;;;1.50;;
28427;SDS011;15662;49.128;8.520;2023-11-21T07:32:32;3.20;;;1.60;;
28427;SDS011;15662;49.128;8.520;2023-11-21T07:34:59;1.92;;;1.42;;
28427;SDS011;15662;49.128;8.520;2023-11-21T07:37:28;1.50;;;1.40;;
28427;SDS011;15662;49.128;8.520;2023-11-21T07:39:56;1.90;;;1.40;;
28427;SDS011;15662;49.128;8.520;2023-11-21T07:42:24;4.25;;;1.50;;
28427;SDS011;15662;49.128;8.520;2023-11-21T07:44:53;3.03;;;1.48;;
28427;SDS011;15662;49.128;8.520;2023-11-21T07:47:21;1.35;;;1.25;;
28427;SDS011;15662;49.128;8.520;2023-11-21T07:49:49;1.52;;;1.42;;
28427;SDS011;15662;49.128;8.520;2023-11-21T07:52:17;1.27;;;1.17;;
28427;SDS011;15662;49.128;8.520;2023-11-21T07:54:44;3.85;;;1.38;;
28427;SDS011;15662;49.128;8.520;2023-11-21T07:57:12;1.75;;;1.58;;
28427;SDS011;15662;49.128;8.520;2023-11-21T07:59:40;1.77;;;1.67;;
28427;SDS011;15662;49.128;8.520;2023-11-21T08:02:09;7.57;;;2.17;;
28427;SDS011;15662;49.128;8.520;2023-11-21T08:04:37;2.10;;;1.92;;
28427;SDS011;15662;49.128;8.520;2023-11-21T08:07:05;2.38;;;1.73;;
28427;SDS011;15662;49.128;8.520;2023-11-21T08:09:32;2.83;;;1.90;;
28427;SDS011;15662;49.128;8.520;2023-11-21T08:12:01;2.60;;;2.00;;
28427;SDS011;15662;49.128;8.520;2023-11-21T08:14:30;2.35;;;2.17;;
28427;SDS011;15662;49.128;8.520;2023-11-21T08:16:58;2.47;;;2.25;;
28427;SDS011;15662;49.128;8.520;2023-11-21T08:19:26;2.97;;;2.67;;
28427;SDS011;15662;49.128;8.520;2023-11-21T08:21:54;2.70;;;2.50;;
28427;SDS011;15662;49.128;8.520;2023-11-21T08:24:22;2.60;;;2.40;;
28427;SDS011;15662;49.128;8.520;2023-11-21T08:26:50;5.05;;;3.20;;
28427;SDS011;15662;49.128;8.520;2023-11-21T08:29:19;5.85;;;4.20;;
28427;SDS011;15662;49.128;8.520;2023-11-21T08:31:47;4.95;;;4.20;;
28427;SDS011;15662;49.128;8.520;2023-11-21T08:34:18;6.28;;;5.68;;
28427;SDS011;15662;49.128;8.520;2023-11-21T08:36:46;5.80;;;5.20;;
28427;SDS011;15662;49.128;8.520;2023-11-21T08:39:14;6.45;;;5.85;;
28427;SDS011;15662;49.128;8.520;2023-11-21T08:41:43;6.20;;;5.60;;
28427;SDS011;15662;49.128;8.520;2023-11-21T08:44:11;7.40;;;6.38;;
28427;SDS011;15662;49.128;8.520;2023-11-21T08:46:38;7.32;;;6.63;;
28427;SDS011;15662;49.128;8.520;2023-11-21T08:49:08;7.10;;;6.35;;
28427;SDS011;15662;49.128;8.520;2023-11-21T08:51:37;6.95;;;6.25;;
28427;SDS011;15662;49.128;8.520;2023-11-21T08:54:05;6.25;;;5.65;;
28427;SDS011;15662;49.128;8.520;2023-11-21T08:56:35;6.10;;;5.50;;
28427;SDS011;15662;49.128;8.520;2023-11-21T08:59:03;7.40;;;6.65;;
28427;SDS011;15662;49.128;8.520;2023-11-21T09:01:31;7.22;;;6.40;;
28427;SDS011;15662;49.128;8.520;2023-11-21T09:04:00;7.05;;;6.35;;
28427;SDS011;15662;49.128;8.520;2023-11-21T09:06:28;7.55;;;6.05;;
28427;SDS011;15662;49.128;8.520;2023-11-21T09:08:56;9.32;;;6.63;;
28427;SDS011;15662;49.128;8.520;2023-11-21T09:11:23;9.75;;;6.90;;
28427;SDS011;15662;49.128;8.520;2023-11-21T09:13:52;7.55;;;6.43;;
28427;SDS011;15662;49.128;8.520;2023-11-21T09:16:21;7.78;;;6.70;;
28427;SDS011;15662;49.128;8.520;2023-11-21T09:18:49;8.00;;;6.82;;
28427;SDS011;15662;49.128;8.520;2023-11-21T09:21:16;7.50;;;6.80;;
28427;SDS011;15662;49.128;8.520;2023-11-21T09:23:44;7.82;;;7.03;;
28427;SDS011;15662;49.128;8.520;2023-11-21T09:26:12;7.93;;;7.13;;
28427;SDS011;15662;49.128;8.520;2023-11-21T09:28:43;8.45;;;7.03;;
28427;SDS011;15662;49.128;8.520;2023-11-21T09:31:14;9.40;;;7.78;;
28427;SDS011;15662;49.128;8.520;2023-11-21T09:33:49;10.95;;;8.10;;
28427;SDS011;15662;49.128;8.520;2023-11-21T09:36:17;7.88;;;7.18;;
28427;SDS011;15662;49.128;8.520;2023-11-21T09:38:45;8.05;;;7.30;;
28427;SDS011;15662;49.128;8.520;2023-11-21T09:41:21;8.65;;;6.82;;
28427;SDS011;15662;49.128;8.520;2023-11-21T09:44:13;7.72;;;6.68;;
28427;SDS011;15662;49.128;8.520;2023-11-21T09:46:44;7.43;;;6.72;;
28427;SDS011;15662;49.128;8.520;2023-11-21T09:49:18;7.28;;;6.57;;
28427;SDS011;15662;49.128;8.520;2023-11-21T09:54:20;6.65;;;6.05;;
28427;SDS011;15662;49.128;8.520;2023-11-21T09:56:48;12.85;;;10.38;;
28427;SDS011;15662;49.128;8.520;2023-11-21T09:59:17;9.40;;;7.25;;
28427;SDS011;15662;49.128;8.520;2023-11-21T10:01:45;16.05;;;11.30;;
28427;SDS011;15662;49.128;8.520;2023-11-21T10:04:14;12.38;;;9.63;;
28427;SDS011;15662;49.128;8.520;2023-11-21T10:06:43;12.63;;;8.90;;
28427;SDS011;15662;49.128;8.520;2023-11-21T10:11:42;8.45;;;6.88;;
28427;SDS011;15662;49.128;8.520;2023-11-21T10:14:11;8.85;;;7.95;;
28427;SDS011;15662;49.128;8.520;2023-11-21T10:16:41;9.38;;;8.35;;
28427;SDS011;15662;49.128;8.520;2023-11-21T10:19:11;8.73;;;7.83;;
28427;SDS011;15662;49.128;8.520;2023-11-21T10:21:43;7.85;;;6.90;;
28427;SDS011;15662;49.128;8.520;2023-11-21T10:24:11;7.07;;;6.38;;
28427;SDS011;15662;49.128;8.520;2023-11-21T10:26:39;6.93;;;6.13;;
28427;SDS011;15662;49.128;8.520;2023-11-21T10:29:19;7.03;;;6.18;;
28427;SDS011;15662;49.128;8.520;2023-11-21T10:31:52;5.68;;;5.18;;
28427;SDS011;15662;49.128;8.520;2023-11-21T10:34:22;5.00;;;4.60;;
28427;SDS011;15662;49.128;8.520;2023-11-21T10:36:50;4.28;;;3.97;;
28427;SDS011;15662;49.128;8.520;2023-11-21T10:39:18;5.18;;;4.68;;
28427;SDS011;15662;49.128;8.520;2023-11-21T10:41:47;6.22;;;4.60;;
28427;SDS011;15662;49.128;8.520;2023-11-21T10:44:18;4.53;;;4.13;;
28427;SDS011;15662;49.128;8.520;2023-11-21T10:46:54;4.28;;;3.97;;
28427;SDS011;15662;49.128;8.520;2023-11-21T10:49:27;4.90;;;4.50;;
28427;SDS011;15662;49.128;8.520;2023-11-21T10:51:55;4.63;;;3.55;;
28427;SDS011;15662;49.128;8.520;2023-11-21T10:54:24;4.25;;;3.85;;
28427;SDS011;15662;49.128;8.520;2023-11-21T10:56:55;3.30;;;3.10;;
28427;SDS011;15662;49.128;8.520;2023-11-21T10:59:30;3.10;;;2.90;;
28427;SDS011;15662;49.128;8.520;2023-11-21T11:02:00;3.40;;;3.10;;
28427;SDS011;15662;49.128;8.520;2023-11-21T11:04:48;3.30;;;3.03;;
28427;SDS011;15662;49.128;8.520;2023-11-21T11:07:16;3.17;;;2.88;;
28427;SDS011;15662;49.128;8.520;2023-11-21T11:09:47;5.45;;;3.42;;
28427;SDS011;15662;49.128;8.520;2023-11-21T11:12:15;2.50;;;2.28;;
28427;SDS011;15662;49.128;8.520;2023-11-21T11:14:44;2.97;;;2.67;;
28427;SDS011;15662;49.128;8.520;2023-11-21T11:17:12;3.97;;;2.25;;
28427;SDS011;15662;49.128;8.520;2023-11-21T11:19:41;8.50;;;4.10;;
28427;SDS011;15662;49.128;8.520;2023-11-21T11:25:18;3.00;;;2.20;;
28427;SDS011;15662;49.128;8.520;2023-11-21T11:28:07;3.17;;;1.70;;
28427;SDS011;15662;49.128;8.520;2023-11-21T11:30:47;2.97;;;2.55;;
28427;SDS011;15662;49.128;8.520;2023-11-21T11:36:25;8.55;;;3.67;;
28427;SDS011;15662;49.128;8.520;2023-11-21T11:39:03;14.90;;;5.95;;
28427;SDS011;15662;49.128;8.520;2023-11-21T11:41:51;15.93;;;6.07;;
28427;SDS011;15662;49.128;8.520;2023-11-21T11:47:14;3.05;;;1.98;;
28427;SDS011;15662;49.128;8.520;2023-11-21T11:52:50;2.75;;;2.08;;
28427;SDS011;15662;49.128;8.520;2023-11-21T11:55:22;2.47;;;2.00;;
28427;SDS011;15662;49.128;8.520;2023-11-21T11:57:52;2.40;;;2.20;;
28427;SDS011;15662;49.128;8.520;2023-11-21T12:02:58;3.55;;;2.58;;
28427;SDS011;15662;49.128;8.520;2023-11-21T12:05:33;17.23;;;8.43;;
28427;SDS011;15662;49.128;8.520;2023-11-21T12:08:06;13.57;;;6.47;;
28427;SDS011;15662;49.128;8.520;2023-11-21T12:10:35;5.93;;;4.15;;
28427;SDS011;15662;49.128;8.520;2023-11-21T12:13:06;20.65;;;8.98;;
28427;SDS011;15662;49.128;8.520;2023-11-21T12:15:37;12.80;;;6.70;;
28427;SDS011;15662;49.128;8.520;2023-11-21T12:18:08;21.30;;;8.83;;
28427;SDS011;15662;49.128;8.520;2023-11-21T12:20:35;23.85;;;11.95;;
28427;SDS011;15662;49.128;8.520;2023-11-21T12:23:08;9.88;;;6.35;;
28427;SDS011;15662;49.128;8.520;2023-11-21T12:25:37;8.95;;;5.70;;
28427;SDS011;15662;49.128;8.520;2023-11-21T12:28:09;37.03;;;12.00;;
28427;SDS011;15662;49.128;8.520;2023-11-21T12:30:36;18.35;;;7.40;;
28427;SDS011;15662;49.128;8.520;2023-11-21T12:33:06;38.25;;;13.43;;
28427;SDS011;15662;49.128;8.520;2023-11-21T12:35:37;14.98;;;7.35;;
28427;SDS011;15662;49.128;8.520;2023-11-21T12:38:05;10.00;;;5.60;;
28427;SDS011;15662;49.128;8.520;2023-11-21T12:40:36;6.75;;;4.68;;
28427;SDS011;15662;49.128;8.520;2023-11-21T12:43:04;8.25;;;3.72;;
28427;SDS011;15662;49.128;8.520;2023-11-21T12:45:33;4.40;;;3.05;;
28427;SDS011;15662;49.128;8.520;2023-11-21T12:48:04;4.05;;;3.05;;
28427;SDS011;15662;49.128;8.520;2023-11-21T12:50:38;3.15;;;2.75;;
28427;SDS011;15662;49.128;8.520;2023-11-21T12:53:08;2.80;;;2.60;;
28427;SDS011;15662;49.128;8.520;2023-11-21T12:55:40;3.92;;;2.40;;
28427;SDS011;15662;49.128;8.520;2023-11-21T12:58:09;4.07;;;2.35;;
28427;SDS011;15662;49.128;8.520;2023-11-21T13:00:39;2.50;;;2.30;;
28427;SDS011;15662;49.128;8.520;2023-11-21T13:03:16;3.92;;;3.10;;
28427;SDS011;15662;49.128;8.520;2023-11-21T13:05:47;37.33;;;14.68;;
28427;SDS011;15662;49.128;8.520;2023-11-21T13:08:21;12.85;;;6.40;;
28427;SDS011;15662;49.128;8.520;2023-11-21T13:10:52;13.00;;;6.13;;
28427;SDS011;15662;49.128;8.520;2023-11-21T13:13:25;8.93;;;3.78;;
28427;SDS011;15662;49.128;8.520;2023-11-21T13:15:56;10.98;;;3.92;;
28427;SDS011;15662;49.128;8.520;2023-11-21T13:18:28;8.35;;;3.22;;
28427;SDS011;15662;49.128;8.520;2023-11-21T13:20:58;16.00;;;3.40;;
28427;SDS011;15662;49.128;8.520;2023-11-21T13:23:41;19.27;;;5.68;;
28427;SDS011;15662;49.128;8.520;2023-11-21T13:26:10;16.48;;;4.85;;
28427;SDS011;15662;49.128;8.520;2023-11-21T13:28:39;12.85;;;4.10;;
28427;SDS011;15662;49.128;8.520;2023-11-21T13:31:12;12.65;;;4.45;;
28427;SDS011;15662;49.128;8.520;2023-11-21T13:33:59;37.28;;;13.77;;
28427;SDS011;15662;49.128;8.520;2023-11-21T13:36:32;27.35;;;10.38;;
28427;SDS011;15662;49.128;8.520;2023-11-21T13:39:03;15.43;;;6.32;;
28427;SDS011;15662;49.128;8.520;2023-11-21T13:41:42;20.42;;;7.80;;
28427;SDS011;15662;49.128;8.520;2023-11-21T13:44:13;8.50;;;4.07;;
28427;SDS011;15662;49.128;8.520;2023-11-21T13:46:54;6.75;;;3.50;;
28427;SDS011;15662;49.128;8.520;2023-11-21T13:49:25;8.70;;;5.32;;
28427;SDS011;15662;49.128;8.520;2023-11-21T13:51:54;7.05;;;4.47;;
28427;SDS011;15662;49.128;8.520;2023-11-21T13:54:22;9.10;;;4.35;;
28427;SDS011;15662;49.128;8.520;2023-11-21T13:56:52;5.05;;;3.40;;
28427;SDS011;15662;49.128;8.520;2023-11-21T13:59:20;3.47;;;2.40;;
28427;SDS011;15662;49.128;8.520;2023-11-21T14:01:50;6.18;;;4.55;;
28427;SDS011;15662;49.128;8.520;2023-11-21T14:04:27;11.10;;;7.10;;
28427;SDS011;15662;49.128;8.520;2023-11-21T14:07:20;12.45;;;7.40;;
28427;SDS011;15662;49.128;8.520;2023-11-21T14:10:00;6.43;;;3.97;;
28427;SDS011;15662;49.128;8.520;2023-11-21T14:12:28;3.80;;;3.50;;
28427;SDS011;15662;49.128;8.520;2023-11-21T14:15:05;4.65;;;2.90;;
28427;SDS011;15662;49.128;8.520;2023-11-21T14:20:07;2.47;;;2.28;;
28427;SDS011;15662;49.128;8.520;2023-11-21T14:22:43;4.45;;;2.28;;
28427;SDS011;15662;49.128;8.520;2023-11-21T14:25:11;2.67;;;2.03;;
28427;SDS011;15662;49.128;8.520;2023-11-21T14:27:39;2.00;;;1.85;;
28427;SDS011;15662;49.128;8.520;2023-11-21T14:30:07;3.92;;;2.00;;
28427;SDS011;15662;49.128;8.520;2023-11-21T14:32:35;3.75;;;2.17;;
28427;SDS011;15662;49.128;8.520;2023-11-21T14:35:05;2.08;;;1.90;;
28427;SDS011;15662;49.128;8.520;2023-11-21T14:37:36;2.35;;;1.70;;
28427;SDS011;15662;49.128;8.520;2023-11-21T14:40:04;3.70;;;1.90;;
28427;SDS011;15662;49.128;8.520;2023-11-21T14:42:34;3.33;;;1.77;;
28427;SDS011;15662;49.128;8.520;2023-11-21T14:45:04;3.00;;;2.05;;
28427;SDS011;15662;49.128;8.520;2023-11-21T14:47:34;2.53;;;1.95;;
28427;SDS011;15662;49.128;8.520;2023-11-21T14:50:02;2.35;;;1.80;;
28427;SDS011;15662;49.128;8.520;2023-11-21T14:52:50;5.03;;;1.67;;
28427;SDS011;15662;49.128;8.520;2023-11-21T14:55:26;3.47;;;2.30;;
28427;SDS011;15662;49.128;8.520;2023-11-21T14:57:59;2.90;;;2.22;;
28427;SDS011;15662;49.128;8.520;2023-11-21T15:00:31;4.43;;;2.22;;
28427;SDS011;15662;49.128;8.520;2023-11-21T15:03:11;5.18;;;2.50;;
28427;SDS011;15662;49.128;8.520;2023-11-21T15:06:00;3.30;;;2.60;;
28427;SDS011;15662;49.128;8.520;2023-11-21T15:08:50;4.18;;;2.63;;
28427;SDS011;15662;49.128;8.520;2023-11-21T15:11:26;4.03;;;2.45;;
28427;SDS011;15662;49.128;8.520;2023-11-21T15:13:58;4.93;;;1.67;;
28427;SDS011;15662;49.128;8.520;2023-11-21T15:16:27;6.90;;;2.50;;
28427;SDS011;15662;49.128;8.520;2023-11-21T15:18:55;3.55;;;2.75;;
28427;SDS011;15662;49.128;8.520;2023-11-21T15:21:23;5.20;;;3.65;;
28427;SDS011;15662;49.128;8.520;2023-11-21T15:23:51;6.20;;;3.42;;